createdAt,value
2019-05-25T05:26:55.739Z,44.87
2019-05-25T05:29:20.354Z,46.60
2019-05-25T05:31:46.543Z,48.10
2019-05-25T05:34:12.761Z,50.47
2019-05-25T05:36:38.938Z,50.00
2019-05-25T05:39:06.913Z,49.50
2019-05-25T05:41:35.531Z,49.73
2019-05-25T05:44:02.506Z,53.17
2019-05-25T05:46:28.693Z,53.67
2019-05-25T05:48:54.898Z,53.33
2019-05-25T05:51:21.327Z,51.90
2019-05-25T05:53:51.311Z,50.80
2019-05-25T05:56:17.515Z,54.80
2019-05-25T05:58:43.723Z,50.27
2019-05-25T06:01:09.871Z,46.43
2019-05-25T06:03:36.186Z,48.87
2019-05-25T06:06:02.363Z,45.10
2019-05-25T06:08:28.567Z,52.80
2019-05-25T06:10:54.880Z,47.97
2019-05-25T06:13:21.043Z,50.23
2019-05-25T06:15:47.218Z,54.97
2019-05-25T06:18:13.422Z,56.73
2019-05-25T06:20:39.672Z,51.77
2019-05-25T06:23:08.608Z,55.47
2019-05-25T06:25:33.928Z,50.43
2019-05-25T06:28:00.432Z,50.47
2019-05-25T06:30:26.698Z,48.63
2019-05-25T06:32:52.906Z,54.77
2019-05-25T06:35:19.071Z,48.93
2019-05-25T06:37:45.247Z,54.23
2019-05-25T06:40:11.604Z,57.37
2019-05-25T06:42:37.825Z,53.00
2019-05-25T06:45:06.119Z,55.47
2019-05-25T06:47:32.420Z,52.00
2019-05-25T06:49:58.623Z,46.53
2019-05-25T06:52:24.851Z,50.13
2019-05-25T06:54:51.055Z,52.17
2019-05-25T06:57:17.252Z,51.70
2019-05-25T06:59:43.524Z,51.93
2019-05-25T07:02:09.721Z,53.80
2019-05-25T07:04:36.094Z,51.33
2019-05-25T07:07:02.474Z,55.43
2019-05-25T07:09:28.683Z,49.27
2019-05-25T07:11:54.850Z,52.60
2019-05-25T07:14:21.126Z,43.13
2019-05-25T07:16:47.523Z,46.20
2019-05-25T07:19:13.871Z,48.00
2019-05-25T07:21:40.246Z,43.87
2019-05-25T07:24:06.454Z,44.87
2019-05-25T07:26:32.643Z,40.80
2019-05-25T07:28:59.474Z,40.20
2019-05-25T07:31:25.670Z,43.27
2019-05-25T07:33:52.147Z,32.83
2019-05-25T07:36:18.394Z,31.57
2019-05-25T07:38:44.699Z,31.77
2019-05-25T07:41:10.946Z,36.77
2019-05-25T07:43:37.136Z,33.57
2019-05-25T07:46:03.494Z,31.87
2019-05-25T07:48:29.668Z,37.10
2019-05-25T07:50:55.842Z,35.97
2019-05-25T07:53:22.042Z,35.73
2019-05-25T07:55:48.215Z,35.63
2019-05-25T07:58:17.971Z,34.00
2019-05-25T08:00:42.402Z,33.90
2019-05-25T08:03:09.605Z,39.83
2019-05-25T08:05:35.754Z,28.47
2019-05-25T08:08:03.028Z,36.77
2019-05-25T08:10:29.604Z,40.00
2019-05-25T08:12:55.782Z,35.03
2019-05-25T08:15:22.225Z,34.43
2019-05-25T08:17:48.392Z,35.60
2019-05-25T08:20:14.668Z,32.70
2019-05-25T08:22:40.866Z,35.40
2019-05-25T08:25:07.350Z,32.77
2019-05-25T08:27:33.627Z,36.87
2019-05-25T08:30:00.143Z,37.10
2019-05-25T08:32:26.316Z,35.83
2019-05-25T08:34:52.494Z,34.23
2019-05-25T08:37:18.702Z,31.60
2019-05-25T08:39:45.212Z,35.00
2019-05-25T08:42:11.658Z,32.57
2019-05-25T08:44:37.850Z,36.90
2019-05-25T08:47:04.183Z,35.57
2019-05-25T08:49:30.531Z,36.67
2019-05-25T08:51:56.715Z,37.37
2019-05-25T08:54:22.889Z,31.23
2019-05-25T08:56:49.062Z,34.77
2019-05-25T08:59:15.267Z,32.40
2019-05-25T09:01:41.576Z,28.83
2019-05-25T09:04:07.831Z,33.30
2019-05-25T09:06:34.035Z,30.70
2019-05-25T09:09:00.306Z,29.97
2019-05-25T09:11:26.695Z,31.87
2019-05-25T09:13:53.031Z,29.17
2019-05-25T09:16:19.200Z,29.20
2019-05-25T09:18:45.484Z,34.70
2019-05-25T09:21:11.932Z,28.97
2019-05-25T09:23:38.090Z,32.40
2019-05-25T09:26:04.468Z,27.93
2019-05-25T09:28:30.924Z,29.13
2019-05-25T09:30:57.458Z,33.07
2019-05-25T09:33:23.928Z,34.70
2019-05-25T09:35:50.303Z,30.37
2019-05-25T09:38:16.579Z,32.27
2019-05-25T09:40:42.855Z,35.60
2019-05-25T09:43:09.059Z,31.43
2019-05-25T09:45:35.312Z,31.27
2019-05-25T09:48:01.518Z,32.10
2019-05-25T09:50:28.097Z,31.33
2019-05-25T09:52:54.307Z,36.77
2019-05-25T09:55:20.447Z,28.67
2019-05-25T09:57:46.970Z,29.43
2019-05-25T10:00:14.322Z,33.20
2019-05-25T10:02:41.100Z,25.83
2019-05-25T10:05:08.229Z,29.73
2019-05-25T10:07:34.400Z,28.87
2019-05-25T10:10:01.506Z,31.03
2019-05-25T10:12:28.427Z,25.77
2019-05-25T10:14:55.684Z,26.43
2019-05-25T10:17:22.139Z,24.00
2019-05-25T10:19:48.446Z,23.93
2019-05-25T10:22:14.782Z,34.63
2019-05-25T10:24:41.196Z,23.47
2019-05-25T10:27:07.641Z,29.03
2019-05-25T10:29:37.070Z,26.20
2019-05-25T10:32:02.201Z,31.87
2019-05-25T10:34:28.395Z,28.53
2019-05-25T10:36:54.573Z,34.50
2019-05-25T10:39:20.750Z,34.20
2019-05-25T10:41:46.963Z,32.87
2019-05-25T10:44:13.146Z,29.87
2019-05-25T10:46:39.465Z,33.03
2019-05-25T10:49:05.814Z,29.87
2019-05-25T10:51:31.986Z,30.17
2019-05-25T10:53:58.153Z,34.13
2019-05-25T10:56:24.358Z,38.47
2019-05-25T10:58:50.716Z,37.27
2019-05-25T11:01:16.859Z,37.27
2019-05-25T11:03:43.326Z,30.27
2019-05-25T11:06:09.495Z,36.10
2019-05-25T11:08:35.681Z,36.53
2019-05-25T11:11:02.002Z,34.73
2019-05-25T11:13:28.170Z,33.67
2019-05-25T11:15:54.443Z,37.00
2019-05-25T11:18:20.790Z,37.90
2019-05-25T11:20:47.087Z,40.27
2019-05-25T11:23:13.242Z,40.77
2019-05-25T11:25:39.550Z,37.03
2019-05-25T11:28:08.290Z,38.67
2019-05-25T11:30:33.816Z,37.53
2019-05-25T11:33:00.346Z,38.67
2019-05-25T11:35:26.531Z,40.17
2019-05-25T11:37:52.706Z,42.77
2019-05-25T11:40:19.209Z,36.97
2019-05-25T11:42:45.382Z,40.33
2019-05-25T11:45:12.558Z,34.10
2019-05-25T11:47:38.902Z,36.13
2019-05-25T11:50:07.361Z,39.13
2019-05-25T11:52:33.727Z,35.20
2019-05-25T11:54:59.923Z,34.50
2019-05-25T11:57:26.098Z,32.80
2019-05-25T11:59:52.275Z,34.87
2019-05-25T12:02:18.825Z,35.87
2019-05-25T12:04:45.034Z,35.10
2019-05-25T12:07:11.212Z,36.57
2019-05-25T12:09:37.421Z,32.37
2019-05-25T12:12:03.593Z,31.90
2019-05-25T12:14:29.773Z,33.47
2019-05-25T12:16:55.973Z,33.40
2019-05-25T12:19:22.165Z,35.13
2019-05-25T12:21:48.327Z,35.63
2019-05-25T12:24:14.774Z,31.00
2019-05-25T12:26:41.000Z,32.30
2019-05-25T12:29:07.215Z,29.77
2019-05-25T12:31:33.430Z,33.23
2019-05-25T12:34:00.171Z,30.43
2019-05-25T12:36:26.338Z,31.27
2019-05-25T12:38:52.665Z,34.00
2019-05-25T12:41:18.841Z,33.90
2019-05-25T12:43:45.107Z,39.47
2019-05-25T12:46:11.442Z,29.63
2019-05-25T12:48:37.615Z,36.30
2019-05-25T12:51:03.898Z,39.87
2019-05-25T12:53:30.325Z,35.57
2019-05-25T12:55:56.454Z,31.63
2019-05-25T12:58:23.828Z,28.53
2019-05-25T13:00:56.114Z,27.37
2019-05-25T13:03:18.310Z,27.93
2019-05-25T13:05:44.536Z,29.83
2019-05-25T13:08:10.745Z,29.33
2019-05-25T13:10:36.929Z,28.93
2019-05-25T13:13:03.614Z,26.63
2019-05-25T13:15:29.930Z,25.03
2019-05-25T13:17:56.122Z,25.37
2019-05-25T13:20:22.284Z,24.93
2019-05-25T13:22:48.499Z,26.40
2019-05-25T13:25:14.672Z,25.37
2019-05-25T13:27:40.951Z,27.63
2019-05-25T13:30:08.250Z,22.03
2019-05-25T13:32:34.478Z,25.17
2019-05-25T13:35:01.142Z,26.43
2019-05-25T13:37:27.330Z,25.93
2019-05-25T13:39:53.511Z,25.30
2019-05-25T13:42:19.686Z,29.40
2019-05-25T13:44:46.192Z,28.53
2019-05-25T13:47:12.466Z,31.37
2019-05-25T13:49:38.638Z,29.33
2019-05-25T13:52:04.947Z,24.93
2019-05-25T13:54:31.122Z,19.80
2019-05-25T13:56:57.398Z,24.97
2019-05-25T13:59:23.695Z,23.23
2019-05-25T14:01:49.878Z,23.80
2019-05-25T14:04:16.054Z,18.70
2019-05-25T14:06:42.266Z,23.33
2019-05-25T14:09:08.571Z,20.47
2019-05-25T14:11:34.721Z,25.60
2019-05-25T14:14:01.129Z,23.50
2019-05-25T14:16:27.291Z,26.53
2019-05-25T14:18:53.472Z,25.33
2019-05-25T14:21:19.666Z,23.40
2019-05-25T14:23:46.035Z,24.43
2019-05-25T14:26:12.312Z,23.70
2019-05-25T14:28:38.541Z,21.97
2019-05-25T14:31:04.795Z,24.83
2019-05-25T14:33:30.973Z,22.83
2019-05-25T14:35:57.716Z,22.73
2019-05-25T14:38:23.883Z,21.27
2019-05-25T14:40:50.070Z,22.80
2019-05-25T14:43:16.430Z,18.13
2019-05-25T14:45:42.602Z,19.80
2019-05-25T14:48:08.776Z,17.20
2019-05-25T14:50:35.122Z,15.00
2019-05-25T14:53:01.331Z,17.27
2019-05-25T14:55:27.471Z,18.77
2019-05-25T14:57:53.780Z,16.67
2019-05-25T15:00:20.154Z,15.27
2019-05-25T15:02:46.426Z,13.03
2019-05-25T15:05:12.623Z,16.87
2019-05-25T15:07:38.794Z,19.13
2019-05-25T15:10:05.893Z,17.30
2019-05-25T15:12:32.082Z,19.67
2019-05-25T15:14:58.368Z,21.63
2019-05-25T15:17:24.551Z,15.47
2019-05-25T15:19:50.755Z,13.27
2019-05-25T15:22:17.093Z,15.40
2019-05-25T15:24:43.279Z,13.03
2019-05-25T15:27:09.591Z,16.70
2019-05-25T15:29:35.800Z,16.20
2019-05-25T15:32:18.500Z,13.63
2019-05-25T15:34:29.946Z,14.33
2019-05-25T15:36:57.554Z,18.00
2019-05-25T15:39:23.834Z,15.07
2019-05-25T15:41:50.198Z,18.57
2019-05-25T15:44:16.378Z,15.70
2019-05-25T15:46:42.829Z,17.77
2019-05-25T15:49:09.101Z,12.17
2019-05-25T15:51:35.367Z,11.67
2019-05-25T15:54:01.558Z,13.97
2019-05-25T15:56:27.982Z,16.97
2019-05-25T15:58:54.258Z,14.93
2019-05-25T16:01:20.841Z,10.47
2019-05-25T16:03:47.150Z,13.23
2019-05-25T16:06:13.431Z,13.30
2019-05-25T16:08:39.669Z,10.63
2019-05-25T16:11:05.874Z,11.30
2019-05-25T16:13:32.045Z,9.40
2019-05-25T16:15:58.235Z,7.87
2019-05-25T16:18:24.438Z,10.20
2019-05-25T16:20:50.619Z,13.77
2019-05-25T16:23:16.790Z,10.27
2019-05-25T16:25:42.990Z,12.03
2019-05-25T16:28:09.174Z,11.10
2019-05-25T16:30:35.357Z,12.27
2019-05-25T16:33:11.539Z,13.90
2019-05-25T16:35:29.932Z,13.90
2019-05-25T16:37:57.274Z,16.40
2019-05-25T16:40:25.023Z,15.50
2019-05-25T16:42:51.206Z,14.90
2019-05-25T16:45:17.477Z,16.23
2019-05-25T16:47:43.680Z,13.83
2019-05-25T16:50:14.702Z,12.33
2019-05-25T16:52:40.042Z,9.27
2019-05-25T16:55:06.768Z,7.27
2019-05-25T16:57:33.050Z,9.33
2019-05-25T16:59:59.222Z,9.10
2019-05-25T17:02:25.519Z,9.37
2019-05-25T17:04:51.687Z,6.57
2019-05-25T17:07:17.874Z,11.50
2019-05-25T17:09:44.076Z,8.93
2019-05-25T17:12:10.347Z,9.77
2019-05-25T17:14:36.699Z,12.27
2019-05-25T17:17:03.106Z,15.87
2019-05-25T17:19:29.345Z,18.43
2019-05-25T17:21:55.462Z,13.03
2019-05-25T17:24:21.755Z,12.53
2019-05-25T17:26:47.938Z,10.80
2019-05-25T17:29:14.102Z,10.60
2019-05-25T17:31:40.302Z,13.53
2019-05-25T17:34:06.575Z,9.07
2019-05-25T17:36:32.750Z,7.77
2019-05-25T17:38:59.678Z,10.80
2019-05-25T17:41:25.908Z,13.60
2019-05-25T17:43:52.125Z,11.40
2019-05-25T17:46:18.329Z,14.03
2019-05-25T17:48:44.501Z,14.13
2019-05-25T17:51:10.682Z,13.40
2019-05-25T17:53:37.036Z,14.57
2019-05-25T17:56:03.411Z,15.10
2019-05-25T17:58:29.582Z,12.87
2019-05-25T18:00:55.946Z,10.57
2019-05-25T18:03:22.124Z,13.07
2019-05-25T18:05:48.392Z,10.10
2019-05-25T18:08:14.601Z,9.50
2019-05-25T18:10:52.058Z,8.13
2019-05-25T18:13:08.966Z,9.93
2019-05-25T18:15:35.302Z,9.27
2019-05-25T18:18:01.684Z,11.77
2019-05-25T18:20:27.967Z,7.93
2019-05-25T18:22:54.180Z,11.80
2019-05-25T18:25:20.446Z,10.57
2019-05-25T18:27:46.610Z,10.13
2019-05-25T18:30:13.130Z,9.50
2019-05-25T18:32:39.382Z,9.47
2019-05-25T18:35:07.859Z,10.73
2019-05-25T18:37:34.069Z,11.30
2019-05-25T18:40:00.808Z,11.37
2019-05-25T18:42:30.207Z,9.73
2019-05-25T18:44:55.007Z,11.27
2019-05-25T18:47:21.230Z,11.90
2019-05-25T18:49:47.378Z,11.80
2019-05-25T18:52:13.580Z,12.37
2019-05-25T18:54:39.753Z,10.93
2019-05-25T18:57:09.329Z,11.93
2019-05-25T18:59:34.133Z,12.43
2019-05-25T19:02:00.310Z,14.47
2019-05-25T19:04:43.300Z,11.80
2019-05-25T19:06:54.503Z,11.37
2019-05-25T19:09:20.986Z,10.03
2019-05-25T19:11:47.163Z,11.93
2019-05-25T19:14:13.379Z,10.50
2019-05-25T19:16:39.553Z,11.47
2019-05-25T19:19:05.747Z,12.87
2019-05-25T19:21:32.127Z,11.40
2019-05-25T19:23:58.295Z,8.70
2019-05-25T19:26:24.480Z,9.63
2019-05-25T19:28:50.799Z,8.97
2019-05-25T19:31:17.045Z,8.67
2019-05-25T19:33:43.218Z,11.23
2019-05-25T19:36:09.622Z,15.17
2019-05-25T19:38:35.826Z,10.30
2019-05-25T19:41:03.101Z,9.37
2019-05-25T19:43:29.294Z,8.90
2019-05-25T19:45:58.763Z,9.17
2019-05-25T19:48:24.939Z,8.37
2019-05-25T19:50:51.132Z,8.60
2019-05-25T19:53:17.306Z,10.60
2019-05-25T19:55:43.583Z,7.97
2019-05-25T19:58:09.885Z,8.83
2019-05-25T20:00:36.062Z,8.33
2019-05-25T20:03:02.238Z,11.97
2019-05-25T20:05:28.525Z,12.00
2019-05-25T20:07:54.715Z,11.00
2019-05-25T20:10:21.184Z,11.73
2019-05-25T20:12:47.386Z,11.80
2019-05-25T20:15:13.750Z,14.53
2019-05-25T20:17:39.934Z,15.07
2019-05-25T20:20:06.800Z,11.50
2019-05-25T20:22:33.023Z,10.50
2019-05-25T20:24:59.302Z,13.77
2019-05-25T20:27:25.503Z,11.30
2019-05-25T20:29:51.683Z,11.13
2019-05-25T20:32:17.859Z,12.90
2019-05-25T20:34:45.826Z,15.87
2019-05-25T20:37:12.043Z,13.13
2019-05-25T20:39:38.225Z,13.07
2019-05-25T20:42:04.642Z,14.63
2019-05-25T20:44:30.811Z,14.70
2019-05-25T20:46:56.999Z,15.20
2019-05-25T20:49:23.300Z,12.43
2019-05-25T20:51:49.487Z,16.43
2019-05-25T20:54:15.655Z,13.97
2019-05-25T20:56:41.964Z,13.37
2019-05-25T20:59:08.238Z,12.90
2019-05-25T21:01:34.429Z,15.77
2019-05-25T21:04:00.826Z,12.90
2019-05-25T21:06:27.094Z,15.97
2019-05-25T21:08:53.274Z,13.53
2019-05-25T21:11:19.474Z,16.83
2019-05-25T21:13:45.751Z,15.10
2019-05-25T21:16:11.918Z,16.13
2019-05-25T21:18:38.118Z,14.83
2019-05-25T21:21:04.295Z,20.50
2019-05-25T21:23:30.478Z,17.77
2019-05-25T21:25:56.900Z,17.73
2019-05-25T21:28:23.075Z,18.27
2019-05-25T21:30:49.550Z,17.70
2019-05-25T21:33:15.751Z,18.73
2019-05-25T21:35:42.247Z,18.03
2019-05-25T21:38:08.426Z,16.97
2019-05-25T21:40:34.718Z,17.67
2019-05-25T21:43:01.244Z,18.33
2019-05-25T21:45:27.410Z,22.50
2019-05-25T21:47:56.282Z,18.13
2019-05-25T21:50:21.606Z,19.47
2019-05-25T21:52:47.782Z,20.57
2019-05-25T21:55:15.991Z,24.57
2019-05-25T21:57:42.171Z,30.13
2019-05-25T22:00:10.465Z,23.13
2019-05-25T22:02:36.662Z,23.50
2019-05-25T22:05:04.023Z,25.87
2019-05-25T22:07:30.191Z,22.37
2019-05-25T22:09:56.353Z,22.23
2019-05-25T22:12:22.482Z,22.60
2019-05-25T22:14:49.068Z,20.43
2019-05-25T22:17:15.582Z,21.83
2019-05-25T22:19:41.970Z,25.93
2019-05-25T22:22:08.354Z,25.10
2019-05-25T22:24:35.285Z,24.33
2019-05-25T22:27:01.561Z,23.80
2019-05-25T22:29:27.946Z,24.97
2019-05-25T22:31:54.351Z,23.27
2019-05-25T22:34:20.919Z,25.73
2019-05-25T22:36:47.190Z,27.60
2019-05-25T22:39:13.654Z,22.90
2019-05-25T22:41:39.935Z,25.83
2019-05-25T22:44:06.974Z,21.83
2019-05-25T22:46:33.635Z,25.03
2019-05-25T22:49:00.002Z,26.97
2019-05-25T22:51:26.182Z,25.00
2019-05-25T22:53:52.410Z,24.40
2019-05-25T22:56:18.679Z,29.67
2019-05-25T22:58:44.858Z,25.67
2019-05-25T23:01:11.161Z,25.63
2019-05-25T23:03:37.489Z,24.63
2019-05-25T23:06:03.601Z,25.60
2019-05-25T23:08:29.979Z,31.23
2019-05-25T23:10:56.190Z,22.47
2019-05-25T23:13:22.571Z,25.70
2019-05-25T23:15:48.987Z,25.97
2019-05-25T23:18:15.157Z,26.50
2019-05-25T23:20:41.335Z,28.47
2019-05-25T23:23:07.639Z,25.60
2019-05-25T23:25:33.808Z,27.73
2019-05-25T23:28:00.183Z,25.03
2019-05-25T23:30:26.633Z,28.50
2019-05-25T23:32:52.836Z,25.97
2019-05-25T23:35:18.978Z,26.90
2019-05-25T23:37:45.298Z,27.13
2019-05-25T23:40:12.071Z,25.70
2019-05-25T23:42:38.244Z,24.47
2019-05-25T23:45:05.156Z,26.10
2019-05-25T23:47:31.335Z,26.20
2019-05-25T23:49:59.657Z,27.10
2019-05-25T23:52:25.525Z,23.93
2019-05-25T23:54:51.978Z,25.67
2019-05-25T23:57:18.158Z,26.03
2019-05-25T23:59:44.571Z,25.80
